Latest Coastal Weather Observations for Orbost

IDV60701

Issued at 9:22 pm EDT Wednesday 7 December 2022 (issued every 10 minutes, with the page automatically refreshed every 10 minutes)

About coastal observations | Map of coastal stations | Coastal observations for VIC | Marine services | Other Formats
Station Details ID: 084145 Name: ORBOST Lat: -37.69 Lon: 148.47 Height: 62.65 m
Data from the previous 72 hours. | See also: Recent months at Orbost
Date/Time
EDT
Wind Sea
Height
m
Swell Vis
km
Cloud Weather Temp
°C
Press
MSL
hPa
Rain since
9am
mm
Dir  Spd
kts
Gust
kts
Height
m
Period
s
Dir
07/09:00pm NW 3 4 - - - - - - Recent precip. 12.5 1004.0 7.2
07/08:30pm WNW 3 4 - - - - - - - 12.6 1003.8 6.6
07/08:00pm SW 3 4 - - - - - - - 12.7 1003.3 6.0
07/07:30pm SSW 3 5 - - - - - - - 12.9 1003.3 5.0
07/07:00pm W 2 5 - - - - - - - 13.4 1003.0 3.8
07/06:30pm SSE 3 6 - - - - - - - 14.0 1001.8 1.0
07/06:00pm SSE 2 5 - - - - - - - 14.1 1002.5 1.0
07/05:30pm S 3 5 - - - - - - - 14.3 1002.5 1.0
07/05:00pm SSW 6 10 - - - - - - - 14.0 1002.5 1.0
07/04:30pm SSW 9 13 - - - - - - - 15.3 1002.5 0.0
07/04:00pm S 7 10 - - - - - - - 17.3 1002.3 0.0
07/03:30pm SSW 7 10 - - - - - - - 17.7 1002.3 0.0
07/03:00pm S 6 10 - - - - - - - 18.3 1002.0 0.0
07/02:30pm S 7 11 - - - - - - - 20.2 1001.6 0.0
07/02:00pm S 6 10 - - - - - - - 20.1 1001.3 0.0
07/01:30pm SSE 6 10 - - - - - - - 20.0 1001.5 0.0
07/01:00pm SSE 6 9 - - - - - - - 19.4 1001.4 0.0
07/12:30pm S 6 10 - - - - - - - 20.0 1001.5 0.0
07/12:00pm SSE 6 10 - - - - - - - 21.3 1001.7 0.0
07/11:30am SSW 5 11 - - - - - - - 20.7 1002.1 0.0
07/11:00am S 2 4 - - - - - - - 22.0 1002.2 0.0
07/10:30am WNW 1 4 - - - - - - - 21.0 1002.6 0.0
07/10:00am N 3 6 - - - - - - - 19.9 1002.7 0.0
07/09:30am W 2 4 - - - - - - - 18.8 1003.1 0.0
07/09:00am W 1 3 - - - - - - - 17.6 1003.6 0.2
07/08:30am WNW 2 4 - - - - - - - 16.0 1003.7 0.2
07/08:00am CALM 0 1 - - - - - - - 14.1 1003.8 0.2
07/07:30am CALM 0 0 - - - - - - - 12.1 1003.8 0.2
07/07:00am CALM 0 0 - - - - - - - 11.1 1003.8 0.2
07/06:30am CALM 0 0 - - - - - - - 10.2 1004.0 0.2
07/06:00am CALM 0 0 - - - - - - - 9.4 1004.2 0.2
07/05:30am CALM 0 0 - - - - - - - 9.0 1004.4 0.2
07/05:00am CALM 0 0 - - - - - - - 8.7 1004.4 0.2
07/04:30am CALM 0 1 - - - - - - - 8.5 1004.4 0.2
07/04:00am CALM 0 0 - - - - - - - 8.4 1004.4 0.2
07/03:30am NNW 1 3 - - - - - - - 8.6 1004.5 0.2
07/03:00am N 2 3 - - - - - - - 7.9 1004.8 0.2
07/02:30am CALM 0 0 - - - - - - - 8.9 1005.1 0.2
07/02:00am CALM 0 0 - - - - - - - 8.9 1005.7 0.2
07/01:30am NE 1 3 - - - - - - - 9.3 1005.9 0.2
07/01:00am N 1 2 - - - - - - - 9.5 1006.5 0.2
07/12:30am NNW 1 2 - - - - - - - 8.8 1006.9 0.2
07/12:00am N 3 4 - - - - - - - 9.3 1007.3 0.2
 
Date/Time
EDT
Wind Sea
Height
m
Swell Vis
km
Cloud Weather Temp
°C
Press
MSL
hPa
Rain since
9am
mm
Dir  Spd
kts
Gust
kts
Height
m
Period
s
Dir
06/11:30pm N 3 4 - - - - - - - 9.8 1007.6 0.2
06/11:00pm N 3 4 - - - - - - - 10.0 1007.9 0.2
06/10:30pm NNE 3 3 - - - - - - - 10.0 1008.2 0.2
06/10:00pm N 3 3 - - - - - - - 10.5 1008.4 0.2
06/09:30pm N 3 3 - - - - - - - 10.8 1008.6 0.2
06/09:00pm CALM 0 0 - - - - - - - 11.2 1008.4 0.2
06/08:30pm CALM 0 0 - - - - - - - 12.0 1008.4 0.2
06/08:00pm S 1 2 - - - - - - - 13.4 1008.5 0.2
06/07:30pm S 3 4 - - - - - - - 13.9 1008.5 0.2
06/07:00pm SSE 3 5 - - - - - - - 14.3 1008.4 0.2
06/06:30pm SSE 3 6 - - - - - - - 14.6 1008.4 0.2
06/06:00pm S 5 8 - - - - - - - 15.2 1008.4 0.2
06/05:30pm SSW 4 7 - - - - - - - 15.0 1008.4 0.2
06/05:00pm SW 6 8 - - - - - - - 16.5 1008.6 0.2
06/04:30pm S 5 8 - - - - - - - 14.9 1009.0 0.2
06/04:00pm SSW 7 10 - - - - - - - 15.5 1009.1 0.2
06/03:30pm S 7 10 - - - - - - - 15.3 1009.3 0.2
06/03:00pm SW 8 12 - - - - - - - 15.7 1009.6 0.2
06/02:30pm SW 9 13 - - - - - - - 16.1 1009.7 0.2
06/02:00pm SSW 9 13 - - - - - - - 15.7 1009.9 0.2
06/01:30pm SSW 8 14 - - - - - - - 16.4 1010.0 0.2
06/01:00pm SSW 8 14 - - - - - - - 15.6 1010.1 0.2
06/12:30pm SSW 9 15 - - - - - - - 16.6 1010.3 0.2
06/12:00pm SSW 8 13 - - - - - - - 15.3 1010.4 0.2
06/11:30am SSW 9 13 - - - - - - - 15.9 1010.5 0.2
06/11:00am SSW 10 15 - - - - - - - 14.8 1010.6 0.2
06/10:30am S 5 11 - - - - - - - 14.0 1010.7 0.2
06/10:00am SSW 4 6 - - - - - - - 14.4 1010.6 0.2
06/09:30am SSW 6 10 - - - - - - - 13.9 1010.8 0.0
06/09:00am SW 6 8 - - - - - - Recent precip. 14.0 1011.0 8.8
06/08:30am SW 9 14 - - - - - - - 13.3 1010.9 8.4
06/08:00am SSW 6 10 - - - - - - - 13.6 1010.7 8.4
06/07:30am SSW 6 10 - - - - - - - 13.4 1010.5 8.4
06/07:00am SSW 7 12 - - - - - - - 13.3 1010.3 8.4
06/06:30am SSW 6 10 - - - - - - - 13.3 1010.1 8.4
06/06:00am SSW 7 11 - - - - - - - 13.3 1009.8 8.4
06/05:30am SSW 5 9 - - - - - - - 13.2 1009.6 8.4
06/05:00am SSW 6 11 - - - - - - - 13.0 1009.4 8.4
06/04:30am SW 5 10 - - - - - - - 12.8 1009.4 8.2
06/04:00am SSW 7 12 - - - - - - - 13.0 1009.3 7.4
06/03:30am SSW 8 15 - - - - - - - 13.1 1009.4 7.2
06/03:00am SSW 8 12 - - - - - - Recent precip. 13.2 1009.4 7.2
06/02:30am SSW 8 11 - - - - - - - 13.1 1009.5 5.8
06/02:00am SSW 8 12 - - - - - - - 13.2 1009.6 4.8
06/01:30am SSW 7 10 - - - - - - - 13.5 1009.6 4.6
06/01:00am SSW 7 12 - - - - - - - 13.5 1009.8 4.2
06/12:30am SSW 8 13 - - - - - - - 13.7 1009.9 4.2
06/12:00am SSW 7 12 - - - - - - Rain 13.9 1009.9 4.2
 
Date/Time
EDT
Wind Sea
Height
m
Swell Vis
km
Cloud Weather Temp
°C
Press
MSL
hPa
Rain since
9am
mm
Dir  Spd
kts
Gust
kts
Height
m
Period
s
Dir
05/11:30pm SSW 6 11 - - - - - - - 14.2 1010.1 4.0
05/11:00pm SSW 5 9 - - - - - - - 14.1 1009.9 4.0
05/10:30pm SSW 7 13 - - - - - - - 14.2 1009.9 3.4
05/10:00pm W 4 6 - - - - - - - 14.0 1009.8 2.0
05/09:30pm WSW 5 7 - - - - - - - 14.6 1009.6 0.6
05/09:00pm WSW 12 16 - - - - - - - 14.9 1009.4 0.6
05/08:30pm SW 11 19 - - - - - - - 15.9 1009.0 0.6
05/08:00pm WSW 10 15 - - - - - - - 17.1 1008.4 0.6
05/07:30pm SW 10 17 - - - - - - - 17.5 1008.0 0.6
05/07:00pm WSW 11 18 - - - - - - - 18.0 1007.5 0.6
05/06:30pm SW 10 17 - - - - - - - 18.7 1007.2 0.6
05/06:00pm WSW 12 18 - - - - - - - 19.4 1006.7 0.6
05/05:30pm SW 11 16 - - - - - - - 21.2 1006.1 0.6
05/05:00pm SW 12 18 - - - - - - - 20.7 1005.9 0.6
05/04:30pm SW 13 20 - - - - - - - 19.1 1005.9 0.6
05/04:00pm SW 9 16 - - - - - - - 19.0 1005.9 0.6
05/03:30pm SW 11 16 - - - - - - - 19.1 1005.7 0.6
05/03:00pm SSW 6 8 - - - - - - - 18.1 1006.0 0.6
05/02:30pm W 3 7 - - - - - - - 18.6 1005.9 0.6
05/02:00pm NW 4 7 - - - - - - - 17.9 1006.2 0.6
05/01:30pm NNW 4 7 - - - - - - - 16.9 1006.2 0.6
05/01:00pm WNW 5 9 - - - - - - - 17.1 1006.5 0.6
05/12:30pm W 7 13 - - - - - - - 18.5 1006.1 0.4
05/12:00pm WSW 9 14 - - - - - - - 18.2 1006.2 0.4
05/11:30am WSW 9 15 - - - - - - - 18.8 1006.1 0.4
05/11:00am W 11 17 - - - - - - - 20.8 1005.9 0.4
05/10:30am W 6 10 - - - - - - - 19.6 1005.6 0.4
05/10:00am WSW 8 13 - - - - - - - 19.3 1005.8 0.4
05/09:30am N 2 4 - - - - - - - 18.7 1005.2 0.4
05/09:00am WSW 4 6 - - - - - - - 18.6 1005.4 0.2
05/08:30am SW 5 9 - - - - - - - 18.4 1005.6 0.2
05/08:00am WSW 5 10 - - - - - - - 19.0 1005.6 0.2
05/07:30am SW 13 19 - - - - - - - 19.7 1005.6 0.2
05/07:00am WNW 3 6 - - - - - - - 21.7 1004.2 0.2
05/06:30am W 3 5 - - - - - - - 21.5 1003.2 0.2
05/06:00am WSW 3 5 - - - - - - - 21.5 1002.8 0.2
05/05:30am WSW 2 4 - - - - - - - 22.8 1002.4 0.2
05/05:00am NNW 4 7 - - - - - - - 24.3 1002.1 0.2
05/04:30am N 7 10 - - - - - - - 24.4 1002.0 0.2
05/04:00am N 5 7 - - - - - - - 24.3 1002.1 0.2
05/03:30am N 7 10 - - - - - - - 24.2 1002.5 0.2
05/03:00am N 6 10 - - - - - - - 23.6 1003.1 0.2
05/02:30am N 4 8 - - - - - - - 23.1 1003.8 0.2
05/02:00am N 2 3 - - - - - - - 21.9 1004.2 0.2
05/01:30am N 4 4 - - - - - - - 21.3 1004.6 0.2
05/01:00am NNW 2 4 - - - - - - - 21.3 1005.3 0.2
05/12:30am N 5 7 - - - - - - - 22.9 1005.8 0.2
05/12:00am N 5 9 - - - - - - - 23.2 1006.4 0.2
 
Date/Time
EDT
Wind Sea
Height
m
Swell Vis
km
Cloud Weather Temp
°C
Press
MSL
hPa
Rain since
9am
mm
Dir  Spd
kts
Gust
kts
Height
m
Period
s
Dir
04/11:30pm N 3 5 - - - - - - - 22.3 1007.1 0.2
04/11:00pm N 4 7 - - - - - - - 22.8 1007.5 0.2
04/10:30pm NNE 6 10 - - - - - - - 23.8 1007.8 0.2
04/10:00pm NNE 9 15 - - - - - - - 25.2 1008.2 0.2
04/09:30pm NE 3 7 - - - - - - - 23.9 1008.3 0.2

Other formats

Comma delimited format used in spreadsheet applications
http://www.bom.gov.au/fwo/IDV60701/IDV60701.95918.axf

JavaScript Object Notation format (JSON) in row-major order
http://www.bom.gov.au/fwo/IDV60701/IDV60701.95918.json

Data quality

Most of these data are generated automatically and are frequently updated. Quality checks on data are not normally performed. It is possible for incorrect values to appear. Refer to information at About Latest Weather Observations and please check the disclaimer before using these data.